sensor_id;sensor_type;location;lat;lon;timestamp;pressure;altitude;pressure_sealevel;temperature;humidity
52625;BME280;38519;52.540;13.410;2023-07-13T00:00:17;45128.19;;;-146.17;73.84
52625;BME280;38519;52.540;13.410;2023-07-13T00:02:43;45149.94;;;-146.17;73.99
52625;BME280;38519;52.540;13.410;2023-07-13T00:05:09;45151.91;;;-146.17;74.04
52625;BME280;38519;52.540;13.410;2023-07-13T00:07:35;45126.22;;;-146.17;74.58
52625;BME280;38519;52.540;13.410;2023-07-13T00:10:01;45132.16;;;-146.17;73.92
52625;BME280;38519;52.540;13.410;2023-07-13T00:12:28;45116.34;;;-146.17;73.79
52625;BME280;38519;52.540;13.410;2023-07-13T00:14:58;45104.47;;;-146.17;75.28
52625;BME280;38519;52.540;13.410;2023-07-13T00:17:25;45136.09;;;-146.17;74.37
52625;BME280;38519;52.540;13.410;2023-07-13T00:19:50;45130.16;;;-146.17;74.13
52625;BME280;38519;52.540;13.410;2023-07-13T00:22:17;45126.22;;;-146.17;74.42
52625;BME280;38519;52.540;13.410;2023-07-13T00:24:43;45114.34;;;-146.17;73.87
52625;BME280;38519;52.540;13.410;2023-07-13T00:27:09;45155.84;;;-146.17;75.18
52625;BME280;38519;52.540;13.410;2023-07-13T00:29:34;45130.16;;;-146.17;73.96
52625;BME280;38519;52.540;13.410;2023-07-13T00:32:01;45138.06;;;-146.17;73.79
52625;BME280;38519;52.540;13.410;2023-07-13T00:34:27;45149.94;;;-146.17;73.46
52625;BME280;38519;52.540;13.410;2023-07-13T00:36:53;45130.16;;;-146.17;73.66
52625;BME280;38519;52.540;13.410;2023-07-13T00:39:18;45140.06;;;-146.17;73.47
52625;BME280;38519;52.540;13.410;2023-07-13T00:41:46;45108.44;;;-146.17;73.35
52625;BME280;38519;52.540;13.410;2023-07-13T00:44:14;45080.75;;;-146.17;74.22
52625;BME280;38519;52.540;13.410;2023-07-13T00:46:40;45149.94;;;-146.17;74.22
52625;BME280;38519;52.540;13.410;2023-07-13T00:49:06;45100.53;;;-146.17;74.72
52625;BME280;38519;52.540;13.410;2023-07-13T00:51:39;45144.00;;;-146.17;75.19
52625;BME280;38519;52.540;13.410;2023-07-13T00:54:07;45118.31;;;-146.17;75.82
52625;BME280;38519;52.540;13.410;2023-07-13T00:56:35;45149.94;;;-146.17;76.32
52625;BME280;38519;52.540;13.410;2023-07-13T00:59:01;45142.03;;;-146.17;76.22
52625;BME280;38519;52.540;13.410;2023-07-13T01:01:28;45167.72;;;-146.17;76.54
52625;BME280;38519;52.540;13.410;2023-07-13T01:03:54;45145.97;;;-146.17;77.58
52625;BME280;38519;52.540;13.410;2023-07-13T01:06:19;45165.75;;;-146.17;78.20
52625;BME280;38519;52.540;13.410;2023-07-13T01:08:46;45140.06;;;-146.17;78.59
52625;BME280;38519;52.540;13.410;2023-07-13T01:11:11;45165.75;;;-146.17;77.45
52625;BME280;38519;52.540;13.410;2023-07-13T01:13:37;45167.72;;;-146.17;77.33
52625;BME280;38519;52.540;13.410;2023-07-13T01:16:11;45167.72;;;-146.17;78.40
52625;BME280;38519;52.540;13.410;2023-07-13T01:18:38;45118.31;;;-146.17;78.78
52625;BME280;38519;52.540;13.410;2023-07-13T01:21:04;45122.25;;;-146.17;78.07
52625;BME280;38519;52.540;13.410;2023-07-13T01:23:30;45151.91;;;-146.17;78.69
52625;BME280;38519;52.540;13.410;2023-07-13T01:25:57;45145.97;;;-146.17;79.14
52625;BME280;38519;52.540;13.410;2023-07-13T01:28:24;45165.75;;;-146.17;79.79
52625;BME280;38519;52.540;13.410;2023-07-13T01:30:52;45163.75;;;-146.17;79.53
52625;BME280;38519;52.540;13.410;2023-07-13T01:33:18;45177.59;;;-146.17;79.64
52625;BME280;38519;52.540;13.410;2023-07-13T01:35:47;45171.66;;;-146.17;79.52
52625;BME280;38519;52.540;13.410;2023-07-13T01:38:19;45138.06;;;-146.17;79.65
52625;BME280;38519;52.540;13.410;2023-07-13T01:40:44;45153.88;;;-146.17;79.68
52625;BME280;38519;52.540;13.410;2023-07-13T01:43:10;45145.97;;;-146.17;79.91
52625;BME280;38519;52.540;13.410;2023-07-13T01:45:37;45163.75;;;-146.17;79.76
52625;BME280;38519;52.540;13.410;2023-07-13T01:48:02;45132.16;;;-146.17;80.30
52625;BME280;38519;52.540;13.410;2023-07-13T01:50:28;45165.75;;;-146.17;81.20
52625;BME280;38519;52.540;13.410;2023-07-13T01:52:53;45151.91;;;-146.17;81.04
52625;BME280;38519;52.540;13.410;2023-07-13T01:55:20;45134.13;;;-146.17;80.96
52625;BME280;38519;52.540;13.410;2023-07-13T01:57:45;45138.06;;;-146.17;79.76
52625;BME280;38519;52.540;13.410;2023-07-13T02:00:11;45183.53;;;-146.17;79.58
52625;BME280;38519;52.540;13.410;2023-07-13T02:02:36;45167.72;;;-146.17;80.47
52625;BME280;38519;52.540;13.410;2023-07-13T02:05:02;45179.56;;;-146.17;80.87
52625;BME280;38519;52.540;13.410;2023-07-13T02:07:28;45149.94;;;-146.17;80.93
52625;BME280;38519;52.540;13.410;2023-07-13T02:09:53;45138.06;;;-146.17;81.29
52625;BME280;38519;52.540;13.410;2023-07-13T02:12:19;45167.72;;;-146.17;81.10
52625;BME280;38519;52.540;13.410;2023-07-13T02:14:44;45153.88;;;-146.17;81.14
52625;BME280;38519;52.540;13.410;2023-07-13T02:17:10;45155.84;;;-146.17;80.79
52625;BME280;38519;52.540;13.410;2023-07-13T02:19:35;45155.84;;;-146.17;80.54
52625;BME280;38519;52.540;13.410;2023-07-13T02:22:01;45157.84;;;-146.17;80.71
52625;BME280;38519;52.540;13.410;2023-07-13T02:24:27;45165.75;;;-146.17;79.94
52625;BME280;38519;52.540;13.410;2023-07-13T02:26:53;45149.94;;;-146.17;79.65
52625;BME280;38519;52.540;13.410;2023-07-13T02:29:19;45175.63;;;-146.17;78.80
52625;BME280;38519;52.540;13.410;2023-07-13T02:31:44;45151.91;;;-146.17;78.31
52625;BME280;38519;52.540;13.410;2023-07-13T02:34:09;45142.03;;;-146.17;78.51
52625;BME280;38519;52.540;13.410;2023-07-13T02:36:35;45149.94;;;-146.17;79.05
52625;BME280;38519;52.540;13.410;2023-07-13T02:39:01;45161.78;;;-146.17;78.38
52625;BME280;38519;52.540;13.410;2023-07-13T02:41:28;45165.75;;;-146.17;78.77
52625;BME280;38519;52.540;13.410;2023-07-13T02:43:54;45157.84;;;-146.17;79.47
52625;BME280;38519;52.540;13.410;2023-07-13T02:46:19;45128.19;;;-146.17;80.20
52625;BME280;38519;52.540;13.410;2023-07-13T02:48:44;45177.59;;;-146.17;81.04
52625;BME280;38519;52.540;13.410;2023-07-13T02:51:10;45191.44;;;-146.17;80.66
52625;BME280;38519;52.540;13.410;2023-07-13T02:53:35;45161.78;;;-146.17;82.46
52625;BME280;38519;52.540;13.410;2023-07-13T02:56:01;45183.53;;;-146.17;82.46
52625;BME280;38519;52.540;13.410;2023-07-13T02:58:27;45185.50;;;-146.17;81.79
52625;BME280;38519;52.540;13.410;2023-07-13T03:00:52;45165.75;;;-146.17;81.86
52625;BME280;38519;52.540;13.410;2023-07-13T03:03:18;45177.59;;;-146.17;82.29
52625;BME280;38519;52.540;13.410;2023-07-13T03:05:44;45175.63;;;-146.17;81.95
52625;BME280;38519;52.540;13.410;2023-07-13T03:08:11;45142.03;;;-146.17;83.01
52625;BME280;38519;52.540;13.410;2023-07-13T03:10:37;45185.50;;;-146.17;82.71
52625;BME280;38519;52.540;13.410;2023-07-13T03:13:04;45165.75;;;-146.17;83.41
52625;BME280;38519;52.540;13.410;2023-07-13T03:15:30;45167.72;;;-146.17;82.40
52625;BME280;38519;52.540;13.410;2023-07-13T03:17:55;45161.78;;;-146.17;82.60
52625;BME280;38519;52.540;13.410;2023-07-13T03:20:21;45163.75;;;-146.17;81.86
52625;BME280;38519;52.540;13.410;2023-07-13T03:22:46;45185.50;;;-146.17;81.99
52625;BME280;38519;52.540;13.410;2023-07-13T03:25:12;45183.53;;;-146.17;81.49
52625;BME280;38519;52.540;13.410;2023-07-13T03:27:37;45149.94;;;-146.17;81.98
52625;BME280;38519;52.540;13.410;2023-07-13T03:30:04;45159.81;;;-146.17;82.68
52625;BME280;38519;52.540;13.410;2023-07-13T03:32:30;45163.75;;;-146.17;82.01
52625;BME280;38519;52.540;13.410;2023-07-13T03:34:55;45173.66;;;-146.17;82.12
52625;BME280;38519;52.540;13.410;2023-07-13T03:37:20;45177.59;;;-146.17;81.78
52625;BME280;38519;52.540;13.410;2023-07-13T03:39:46;45215.16;;;-146.17;81.98
52625;BME280;38519;52.540;13.410;2023-07-13T03:42:11;45199.34;;;-146.17;81.63
52625;BME280;38519;52.540;13.410;2023-07-13T03:44:37;45179.56;;;-146.17;81.95
52625;BME280;38519;52.540;13.410;2023-07-13T03:47:02;45193.41;;;-146.17;82.59
52625;BME280;38519;52.540;13.410;2023-07-13T03:49:28;45155.84;;;-146.17;81.25
52625;BME280;38519;52.540;13.410;2023-07-13T03:51:53;45169.69;;;-146.17;81.21
52625;BME280;38519;52.540;13.410;2023-07-13T03:54:19;45183.53;;;-146.17;82.09
52625;BME280;38519;52.540;13.410;2023-07-13T03:56:44;45165.75;;;-146.17;80.44
52625;BME280;38519;52.540;13.410;2023-07-13T03:59:09;45171.66;;;-146.17;79.87
52625;BME280;38519;52.540;13.410;2023-07-13T04:01:35;45173.66;;;-146.17;80.38
52625;BME280;38519;52.540;13.410;2023-07-13T04:04:00;45167.72;;;-146.17;80.63
52625;BME280;38519;52.540;13.410;2023-07-13T04:06:27;45179.56;;;-146.17;80.39
52625;BME280;38519;52.540;13.410;2023-07-13T04:08:54;45173.66;;;-146.17;80.25
52625;BME280;38519;52.540;13.410;2023-07-13T04:11:20;45163.75;;;-146.17;80.67
52625;BME280;38519;52.540;13.410;2023-07-13T04:13:46;45161.78;;;-146.17;80.49
52625;BME280;38519;52.540;13.410;2023-07-13T04:16:13;45193.41;;;-146.17;80.99
52625;BME280;38519;52.540;13.410;2023-07-13T04:18:40;45144.00;;;-146.17;81.26
52625;BME280;38519;52.540;13.410;2023-07-13T04:21:06;45189.44;;;-146.17;81.45
52625;BME280;38519;52.540;13.410;2023-07-13T04:23:32;45177.59;;;-146.17;82.17
52625;BME280;38519;52.540;13.410;2023-07-13T04:25:57;45177.59;;;-146.17;83.34
52625;BME280;38519;52.540;13.410;2023-07-13T04:28:23;45221.06;;;-146.17;83.16
52625;BME280;38519;52.540;13.410;2023-07-13T04:30:50;45165.75;;;-146.17;82.23
52625;BME280;38519;52.540;13.410;2023-07-13T04:33:15;45221.06;;;-146.17;82.27
52625;BME280;38519;52.540;13.410;2023-07-13T04:35:44;45203.28;;;-146.17;82.12
52625;BME280;38519;52.540;13.410;2023-07-13T04:38:12;45151.91;;;-146.17;82.18
52625;BME280;38519;52.540;13.410;2023-07-13T04:40:37;45191.44;;;-146.17;82.52
52625;BME280;38519;52.540;13.410;2023-07-13T04:43:03;45201.31;;;-146.17;81.89
52625;BME280;38519;52.540;13.410;2023-07-13T04:45:28;45171.66;;;-146.17;81.59
52625;BME280;38519;52.540;13.410;2023-07-13T04:47:54;45163.75;;;-146.17;81.89
52625;BME280;38519;52.540;13.410;2023-07-13T04:50:19;45177.59;;;-146.17;80.83
52625;BME280;38519;52.540;13.410;2023-07-13T04:52:49;45171.66;;;-146.17;79.91
52625;BME280;38519;52.540;13.410;2023-07-13T04:55:15;45189.44;;;-146.17;79.62
52625;BME280;38519;52.540;13.410;2023-07-13T04:57:43;45193.41;;;-146.17;79.41
52625;BME280;38519;52.540;13.410;2023-07-13T05:00:11;45151.91;;;-146.17;79.28
52625;BME280;38519;52.540;13.410;2023-07-13T05:02:37;45201.31;;;-146.17;79.47
52625;BME280;38519;52.540;13.410;2023-07-13T05:05:04;45187.47;;;-146.17;80.60
52625;BME280;38519;52.540;13.410;2023-07-13T05:07:29;45177.59;;;-146.17;80.55
52625;BME280;38519;52.540;13.410;2023-07-13T05:09:55;45165.75;;;-146.17;80.49
52625;BME280;38519;52.540;13.410;2023-07-13T05:12:20;45169.69;;;-146.17;79.55
52625;BME280;38519;52.540;13.410;2023-07-13T05:14:45;45191.44;;;-146.17;79.03
52625;BME280;38519;52.540;13.410;2023-07-13T05:17:12;45199.34;;;-146.17;78.92
52625;BME280;38519;52.540;13.410;2023-07-13T05:19:37;45193.41;;;-146.17;78.85
52625;BME280;38519;52.540;13.410;2023-07-13T05:22:04;45132.16;;;-146.17;79.53
52625;BME280;38519;52.540;13.410;2023-07-13T05:24:29;45227.00;;;-146.17;80.02
52625;BME280;38519;52.540;13.410;2023-07-13T05:26:55;45169.69;;;-146.17;78.71
52625;BME280;38519;52.540;13.410;2023-07-13T05:29:20;45134.13;;;-146.17;78.03
52625;BME280;38519;52.540;13.410;2023-07-13T05:31:46;45161.78;;;-146.17;77.62
52625;BME280;38519;52.540;13.410;2023-07-13T05:34:11;45177.59;;;-146.17;77.18
52625;BME280;38519;52.540;13.410;2023-07-13T05:36:36;45187.47;;;-146.17;77.11
52625;BME280;38519;52.540;13.410;2023-07-13T05:39:03;45163.75;;;-146.17;76.33
52625;BME280;38519;52.540;13.410;2023-07-13T05:41:30;45171.66;;;-146.17;77.20
52625;BME280;38519;52.540;13.410;2023-07-13T05:43:55;45165.75;;;-146.17;76.47
52625;BME280;38519;52.540;13.410;2023-07-13T05:46:21;45177.59;;;-146.17;76.26
52625;BME280;38519;52.540;13.410;2023-07-13T05:48:46;45173.66;;;-146.17;75.19
52625;BME280;38519;52.540;13.410;2023-07-13T05:51:11;45145.97;;;-146.17;75.11
52625;BME280;38519;52.540;13.410;2023-07-13T05:53:37;45130.16;;;-146.17;75.08
52625;BME280;38519;52.540;13.410;2023-07-13T05:56:02;45134.13;;;-146.17;74.90
52625;BME280;38519;52.540;13.410;2023-07-13T05:58:27;45173.66;;;-146.17;74.57
52625;BME280;38519;52.540;13.410;2023-07-13T06:01:03;45153.88;;;-146.17;74.97
52625;BME280;38519;52.540;13.410;2023-07-13T06:03:30;45165.75;;;-146.17;74.60
52625;BME280;38519;52.540;13.410;2023-07-13T06:05:55;45147.94;;;-146.17;75.37
52625;BME280;38519;52.540;13.410;2023-07-13T06:08:20;45149.94;;;-146.17;75.58
52625;BME280;38519;52.540;13.410;2023-07-13T06:10:46;45136.09;;;-146.17;74.24
52625;BME280;38519;52.540;13.410;2023-07-13T06:13:11;45153.88;;;-146.17;73.67
52625;BME280;38519;52.540;13.410;2023-07-13T06:15:36;45153.88;;;-146.17;73.04
52625;BME280;38519;52.540;13.410;2023-07-13T06:18:01;45149.94;;;-146.17;73.05
52625;BME280;38519;52.540;13.410;2023-07-13T06:20:28;45136.09;;;-146.17;72.98
52625;BME280;38519;52.540;13.410;2023-07-13T06:22:54;45151.91;;;-146.17;72.55
52625;BME280;38519;52.540;13.410;2023-07-13T06:25:19;45142.03;;;-146.17;73.39
52625;BME280;38519;52.540;13.410;2023-07-13T06:27:44;45134.13;;;-146.17;71.70
52625;BME280;38519;52.540;13.410;2023-07-13T06:30:10;45153.88;;;-146.17;72.87
52625;BME280;38519;52.540;13.410;2023-07-13T06:32:35;45130.16;;;-146.17;72.75
52625;BME280;38519;52.540;13.410;2023-07-13T06:35:00;45128.19;;;-146.17;72.07
52625;BME280;38519;52.540;13.410;2023-07-13T06:37:26;45153.88;;;-146.17;71.11
52625;BME280;38519;52.540;13.410;2023-07-13T06:39:51;45100.53;;;-146.17;71.96
52625;BME280;38519;52.540;13.410;2023-07-13T06:42:16;45130.16;;;-146.17;71.03
52625;BME280;38519;52.540;13.410;2023-07-13T06:44:42;45130.16;;;-146.17;70.37
52625;BME280;38519;52.540;13.410;2023-07-13T06:47:07;45128.19;;;-146.17;71.20
52625;BME280;38519;52.540;13.410;2023-07-13T06:49:33;45116.34;;;-146.17;70.69
52625;BME280;38519;52.540;13.410;2023-07-13T06:51:58;45136.09;;;-146.17;70.29
52625;BME280;38519;52.540;13.410;2023-07-13T06:54:23;45096.56;;;-146.17;69.89
52625;BME280;38519;52.540;13.410;2023-07-13T06:56:50;45118.31;;;-146.17;70.66
52625;BME280;38519;52.540;13.410;2023-07-13T06:59:15;45142.03;;;-146.17;69.57
52625;BME280;38519;52.540;13.410;2023-07-13T07:01:41;45110.41;;;-146.17;68.15
52625;BME280;38519;52.540;13.410;2023-07-13T07:04:06;45102.50;;;-146.17;69.26
52625;BME280;38519;52.540;13.410;2023-07-13T07:06:31;45142.03;;;-146.17;68.53
52625;BME280;38519;52.540;13.410;2023-07-13T07:08:56;45116.34;;;-146.17;67.53
52625;BME280;38519;52.540;13.410;2023-07-13T07:11:24;45124.25;;;-146.17;66.75
52625;BME280;38519;52.540;13.410;2023-07-13T07:13:50;45080.75;;;-146.17;66.41
52625;BME280;38519;52.540;13.410;2023-07-13T07:16:15;45116.34;;;-146.17;66.88
52625;BME280;38519;52.540;13.410;2023-07-13T07:18:41;45094.59;;;-146.17;65.56
52625;BME280;38519;52.540;13.410;2023-07-13T07:21:06;45098.56;;;-146.17;65.17
52625;BME280;38519;52.540;13.410;2023-07-13T07:23:32;45100.53;;;-146.17;64.01
52625;BME280;38519;52.540;13.410;2023-07-13T07:25:57;45062.97;;;-146.17;62.91
52625;BME280;38519;52.540;13.410;2023-07-13T07:28:23;45118.31;;;-146.17;62.14
52625;BME280;38519;52.540;13.410;2023-07-13T07:30:49;45102.50;;;-146.17;62.48
52625;BME280;38519;52.540;13.410;2023-07-13T07:33:17;45082.75;;;-146.17;61.70
52625;BME280;38519;52.540;13.410;2023-07-13T07:35:43;45098.56;;;-146.17;62.31
52625;BME280;38519;52.540;13.410;2023-07-13T07:38:08;45094.59;;;-146.17;61.81
52625;BME280;38519;52.540;13.410;2023-07-13T07:40:36;45092.63;;;-146.17;62.62
52625;BME280;38519;52.540;13.410;2023-07-13T07:43:01;45096.56;;;-146.17;63.28
52625;BME280;38519;52.540;13.410;2023-07-13T07:45:27;45090.66;;;-146.17;62.74
52625;BME280;38519;52.540;13.410;2023-07-13T07:47:53;45062.97;;;-146.17;61.88
52625;BME280;38519;52.540;13.410;2023-07-13T07:50:20;45072.84;;;-146.17;61.84
52625;BME280;38519;52.540;13.410;2023-07-13T07:52:45;45112.38;;;-146.17;61.35
52625;BME280;38519;52.540;13.410;2023-07-13T07:55:11;45094.59;;;-146.17;61.43
52625;BME280;38519;52.540;13.410;2023-07-13T07:57:37;45078.78;;;-146.17;60.27
52625;BME280;38519;52.540;13.410;2023-07-13T08:00:02;45070.88;;;-146.17;61.58
52625;BME280;38519;52.540;13.410;2023-07-13T08:02:27;45043.22;;;-146.17;61.07
52625;BME280;38519;52.540;13.410;2023-07-13T08:04:52;45082.75;;;-146.17;60.83
52625;BME280;38519;52.540;13.410;2023-07-13T08:07:18;45066.94;;;-146.17;60.45
52625;BME280;38519;52.540;13.410;2023-07-13T08:09:43;45021.47;;;-146.17;59.68
52625;BME280;38519;52.540;13.410;2023-07-13T08:12:09;45039.25;;;-146.17;59.09
52625;BME280;38519;52.540;13.410;2023-07-13T08:14:34;45033.34;;;-146.17;59.01
52625;BME280;38519;52.540;13.410;2023-07-13T08:17:00;45070.88;;;-146.17;59.40
52625;BME280;38519;52.540;13.410;2023-07-13T08:19:25;45055.06;;;-146.17;58.65
52625;BME280;38519;52.540;13.410;2023-07-13T08:21:50;45031.34;;;-146.17;58.91
52625;BME280;38519;52.540;13.410;2023-07-13T08:24:16;45041.25;;;-146.17;59.27
52625;BME280;38519;52.540;13.410;2023-07-13T08:26:43;45043.22;;;-146.17;58.94
52625;BME280;38519;52.540;13.410;2023-07-13T08:29:09;45029.38;;;-146.17;58.48
52625;BME280;38519;52.540;13.410;2023-07-13T08:31:35;45021.47;;;-146.17;58.48
52625;BME280;38519;52.540;13.410;2023-07-13T08:34:00;45037.28;;;-146.17;57.89
52625;BME280;38519;52.540;13.410;2023-07-13T08:36:25;45019.50;;;-146.17;58.12
52625;BME280;38519;52.540;13.410;2023-07-13T08:38:52;45027.41;;;-146.17;58.13
52625;BME280;38519;52.540;13.410;2023-07-13T08:41:17;45053.09;;;-146.17;57.72
52625;BME280;38519;52.540;13.410;2023-07-13T08:43:45;44997.75;;;-146.17;58.37
52625;BME280;38519;52.540;13.410;2023-07-13T08:46:13;45013.56;;;-146.17;58.60
52625;BME280;38519;52.540;13.410;2023-07-13T08:48:42;45025.44;;;-146.17;57.31
52625;BME280;38519;52.540;13.410;2023-07-13T08:53:53;44997.75;;;-146.17;57.33
52625;BME280;38519;52.540;13.410;2023-07-13T08:56:23;45031.34;;;-146.17;57.81
52625;BME280;38519;52.540;13.410;2023-07-13T08:59:00;44993.81;;;-146.17;57.02
52625;BME280;38519;52.540;13.410;2023-07-13T09:04:11;45031.34;;;-146.17;57.69
52625;BME280;38519;52.540;13.410;2023-07-13T09:07:29;45015.56;;;-146.17;57.91
52625;BME280;38519;52.540;13.410;2023-07-13T09:12:02;45041.25;;;-146.17;57.86
52625;BME280;38519;52.540;13.410;2023-07-13T09:14:41;45001.72;;;-146.17;56.38
52625;BME280;38519;52.540;13.410;2023-07-13T09:17:24;45033.34;;;-146.17;56.99
52625;BME280;38519;52.540;13.410;2023-07-13T09:20:03;45011.59;;;-146.17;57.05
52625;BME280;38519;52.540;13.410;2023-07-13T09:22:29;45011.59;;;-146.17;55.69
52625;BME280;38519;52.540;13.410;2023-07-13T09:25:01;45025.44;;;-146.17;55.12
52625;BME280;38519;52.540;13.410;2023-07-13T09:27:32;45035.31;;;-146.17;55.12
52625;BME280;38519;52.540;13.410;2023-07-13T09:32:34;44970.09;;;-146.17;54.80
52625;BME280;38519;52.540;13.410;2023-07-13T09:35:01;45027.41;;;-146.17;54.62
52625;BME280;38519;52.540;13.410;2023-07-13T09:37:29;44987.88;;;-146.17;53.95
52625;BME280;38519;52.540;13.410;2023-07-13T09:39:55;44999.75;;;-146.17;53.95
52625;BME280;38519;52.540;13.410;2023-07-13T09:42:22;45003.69;;;-146.17;53.95
52625;BME280;38519;52.540;13.410;2023-07-13T09:47:17;44999.75;;;-146.17;53.25
52625;BME280;38519;52.540;13.410;2023-07-13T09:49:43;44981.97;;;-146.17;52.54
52625;BME280;38519;52.540;13.410;2023-07-13T09:52:12;44985.91;;;-146.17;53.33
52625;BME280;38519;52.540;13.410;2023-07-13T09:54:37;44995.78;;;-146.17;52.53
52625;BME280;38519;52.540;13.410;2023-07-13T09:57:03;44987.88;;;-146.17;52.69
52625;BME280;38519;52.540;13.410;2023-07-13T09:59:39;44978.00;;;-146.17;53.18
52625;BME280;38519;52.540;13.410;2023-07-13T10:04:53;44972.06;;;-146.17;52.84
52625;BME280;38519;52.540;13.410;2023-07-13T10:07:22;44924.66;;;-146.17;52.51
52625;BME280;38519;52.540;13.410;2023-07-13T10:09:49;44989.88;;;-146.17;52.71
52625;BME280;38519;52.540;13.410;2023-07-13T10:12:17;44938.47;;;-146.17;52.01
52625;BME280;38519;52.540;13.410;2023-07-13T10:14:43;44954.28;;;-146.17;51.29
52625;BME280;38519;52.540;13.410;2023-07-13T10:17:10;44900.94;;;-146.17;51.43
52625;BME280;38519;52.540;13.410;2023-07-13T10:19:37;44908.84;;;-146.17;51.42
52625;BME280;38519;52.540;13.410;2023-07-13T10:22:11;44897.00;;;-146.17;50.79
52625;BME280;38519;52.540;13.410;2023-07-13T10:24:39;44904.88;;;-146.17;51.40
52625;BME280;38519;52.540;13.410;2023-07-13T10:29:38;44906.88;;;-146.17;50.67
52625;BME280;38519;52.540;13.410;2023-07-13T10:32:08;44930.56;;;-146.17;51.41
52625;BME280;38519;52.540;13.410;2023-07-13T10:34:35;44932.56;;;-146.17;51.43
52625;BME280;38519;52.540;13.410;2023-07-13T10:37:00;44908.84;;;-146.17;52.13
52625;BME280;38519;52.540;13.410;2023-07-13T10:39:26;44946.38;;;-146.17;51.84
52625;BME280;38519;52.540;13.410;2023-07-13T10:41:57;44948.38;;;-146.17;52.13
52625;BME280;38519;52.540;13.410;2023-07-13T10:44:25;44983.94;;;-146.17;52.57
52625;BME280;38519;52.540;13.410;2023-07-13T10:46:57;44981.97;;;-146.17;52.49
52625;BME280;38519;52.540;13.410;2023-07-13T10:49:23;44960.22;;;-146.17;51.99
52625;BME280;38519;52.540;13.410;2023-07-13T10:51:51;44936.50;;;-146.17;51.79
52625;BME280;38519;52.540;13.410;2023-07-13T10:54:18;44942.44;;;-146.17;52.05
52625;BME280;38519;52.540;13.410;2023-07-13T10:56:48;44897.00;;;-146.17;51.14
52625;BME280;38519;52.540;13.410;2023-07-13T10:59:26;44916.75;;;-146.17;50.75
52625;BME280;38519;52.540;13.410;2023-07-13T11:04:29;44916.75;;;-146.17;51.97
52625;BME280;38519;52.540;13.410;2023-07-13T11:06:58;44893.03;;;-146.17;51.88
52625;BME280;38519;52.540;13.410;2023-07-13T11:09:40;44932.56;;;-146.17;51.84
52625;BME280;38519;52.540;13.410;2023-07-13T11:12:10;44910.81;;;-146.17;52.02
52625;BME280;38519;52.540;13.410;2023-07-13T11:17:36;44968.13;;;-146.17;52.49
52625;BME280;38519;52.540;13.410;2023-07-13T11:25:31;44897.00;;;-146.17;50.79
52625;BME280;38519;52.540;13.410;2023-07-13T11:30:41;44944.41;;;-146.17;51.72
52625;BME280;38519;52.540;13.410;2023-07-13T11:36:02;44930.56;;;-146.17;50.98
52625;BME280;38519;52.540;13.410;2023-07-13T11:38:38;44877.22;;;-146.17;50.32
52625;BME280;38519;52.540;13.410;2023-07-13T11:41:26;44924.66;;;-146.17;49.41
52625;BME280;38519;52.540;13.410;2023-07-13T11:43:53;44906.88;;;-146.17;49.52
52625;BME280;38519;52.540;13.410;2023-07-13T11:46:20;44912.78;;;-146.17;50.14
52625;BME280;38519;52.540;13.410;2023-07-13T11:48:46;44875.25;;;-146.17;49.35
52625;BME280;38519;52.540;13.410;2023-07-13T11:51:15;44956.28;;;-146.17;50.00
52625;BME280;38519;52.540;13.410;2023-07-13T11:53:45;44904.88;;;-146.17;49.50
52625;BME280;38519;52.540;13.410;2023-07-13T11:56:10;44902.91;;;-146.17;49.32
52625;BME280;38519;52.540;13.410;2023-07-13T11:58:36;44928.59;;;-146.17;49.11
52625;BME280;38519;52.540;13.410;2023-07-13T12:01:02;44906.88;;;-146.17;50.13
52625;BME280;38519;52.540;13.410;2023-07-13T12:03:30;44904.88;;;-146.17;49.85
52625;BME280;38519;52.540;13.410;2023-07-13T12:06:00;44869.31;;;-146.17;49.31
52625;BME280;38519;52.540;13.410;2023-07-13T12:08:27;44859.44;;;-146.17;48.94
52625;BME280;38519;52.540;13.410;2023-07-13T12:11:05;44877.22;;;-146.17;48.26
52625;BME280;38519;52.540;13.410;2023-07-13T12:13:35;44877.22;;;-146.17;48.48
52625;BME280;38519;52.540;13.410;2023-07-13T12:16:02;44853.50;;;-146.17;48.64
52625;BME280;38519;52.540;13.410;2023-07-13T12:18:33;44885.13;;;-146.17;48.91
52625;BME280;38519;52.540;13.410;2023-07-13T12:20:59;44825.84;;;-146.17;48.36
52625;BME280;38519;52.540;13.410;2023-07-13T12:23:29;44879.19;;;-146.17;48.98
52625;BME280;38519;52.540;13.410;2023-07-13T12:25:55;44920.69;;;-146.17;49.79
52625;BME280;38519;52.540;13.410;2023-07-13T12:30:58;44873.28;;;-146.17;50.26
52625;BME280;38519;52.540;13.410;2023-07-13T12:33:23;44889.09;;;-146.17;50.30
52625;BME280;38519;52.540;13.410;2023-07-13T12:35:52;44916.75;;;-146.17;49.76
52625;BME280;38519;52.540;13.410;2023-07-13T12:38:18;44825.84;;;-146.17;48.87
52625;BME280;38519;52.540;13.410;2023-07-13T12:40:45;44812.00;;;-146.17;47.88
52625;BME280;38519;52.540;13.410;2023-07-13T12:43:14;44814.00;;;-146.17;47.03
52625;BME280;38519;52.540;13.410;2023-07-13T12:45:54;44804.13;;;-146.17;46.28
52625;BME280;38519;52.540;13.410;2023-07-13T12:48:19;44780.41;;;-146.17;45.63
52625;BME280;38519;52.540;13.410;2023-07-13T12:50:48;44740.88;;;-146.17;45.37
52625;BME280;38519;52.540;13.410;2023-07-13T12:53:38;44772.50;;;-146.17;46.11
52625;BME280;38519;52.540;13.410;2023-07-13T12:56:02;44760.63;;;-146.17;45.78
52625;BME280;38519;52.540;13.410;2023-07-13T12:58:29;44839.69;;;-146.17;45.92
52625;BME280;38519;52.540;13.410;2023-07-13T13:00:56;44829.81;;;-146.17;46.23
52625;BME280;38519;52.540;13.410;2023-07-13T13:03:24;44839.69;;;-146.17;46.72
52625;BME280;38519;52.540;13.410;2023-07-13T13:05:56;44800.16;;;-146.17;46.58